LFBL/LIG METAR and TAF weather

Enter ICAO airport designator
Station Type Date Time Source
LFBL METAR 2019/11/15 05:30 UTC NOAA

LFBL 150530Z AUTO 16003KT 9999 BKN003 BKN007 OVC020 03/03 Q0997 TEMPO 0300 FG VV///


Station Type Date Time Source
LFBL Decoded METAR 2019/11/15 05:30 UTC NOAA

Limoges, France (LFBL) 45-52N 001-11E 402M
Nov 15, 2019 - 12:30 AM EST / 2019.11.15 0530 UTC
Wind: from the SSE (160 degrees) at 3 MPH (3 KT):0
Visibility: greater than 7 mile(s):0
Sky conditions: overcast
Temperature: 37 F (3 C)
Dew Point: 37 F (3 C)
Relative Humidity: 100%
Pressure (altimeter): 29.44 in. Hg (0997 hPa)
ob: LFBL 150530Z AUTO 16003KT 9999 BKN003 BKN007 OVC020 03/03 Q0997 TEMPO 0300 FG VV///
cycle: 5

Station Type Date Time Source
LFBL TAF 2019/11/15 06:45 UTC NOAA

TAF TAF LFBL 150500Z 1506/1606 VRB03KT 9999 BKN020
TEMPO 1506/1509 BKN002 PROB30
TEMPO 1506/1509 0300 FG VV///
BECMG 1513/1515 25005KT PROB30
TEMPO 1515/1518 -RA BKN008
BECMG 1519/1521 BKN004
TEMPO 1521/1524 2000 BR BKN002
BECMG 1600/1602 21008KT BKN017
TEMPO 1601/1606 3000 -RA BKN003

Example: see airport list